Terminal Aerodrome Forecast
Issued by NWS St Louis, MO

Home | Current Version | Previous Version | Text Only | Print | Product List | Glossary On
Versions: 1 2 3 4 5 6 7 8 9 10 11 12 13 14 15 16 17 18 19 20
000
FTUS43 KLSX 242200 AAC
TAFCOU
TAF AMD
KCOU 242219Z 2422/2518 VRB06KT 4SM -TSRA BR BKN050CB
     FM242300 29014KT P6SM -SHRA OVC030
     FM250100 30014G24KT P6SM OVC018
     FM250600 27012KT P6SM FEW150=

USA.gov is the U.S. government's official web portal to all federal, state and local government web resources and services.